createdAt,value
2018-04-16T00:00:06.835Z,91.40
2018-04-16T00:03:10.803Z,91.60
2018-04-16T00:06:13.983Z,91.60
2018-04-16T00:09:17.162Z,91.90
2018-04-16T00:12:20.337Z,91.70
2018-04-16T00:15:23.563Z,92.00
2018-04-16T00:18:26.759Z,91.80
2018-04-16T00:21:29.931Z,92.00
2018-04-16T00:24:33.858Z,93.10
2018-04-16T00:27:37.063Z,93.10
2018-04-16T00:30:40.307Z,92.60
2018-04-16T00:33:50.014Z,92.40
2018-04-16T00:36:58.807Z,92.30
2018-04-16T00:40:07.594Z,92.60
2018-04-16T00:46:52.245Z,92.40
2018-04-16T00:50:13.208Z,92.90
2018-04-16T00:53:22.767Z,93.20
2018-04-16T00:56:32.457Z,93.40
2018-04-16T00:59:42.118Z,93.30
2018-04-16T01:02:51.096Z,93.10
2018-04-16T01:06:00.167Z,93.40
2018-04-16T01:09:09.058Z,93.10
2018-04-16T01:12:17.993Z,93.30
2018-04-16T01:15:26.965Z,93.90
2018-04-16T01:18:35.924Z,94.30
2018-04-16T01:21:44.884Z,94.20
2018-04-16T01:24:54.446Z,94.20
2018-04-16T01:28:03.352Z,94.30
2018-04-16T01:31:12.735Z,94.80
2018-04-16T01:34:21.632Z,94.80
2018-04-16T01:37:30.562Z,95.00
2018-04-16T01:40:39.612Z,94.80
2018-04-16T01:43:48.466Z,95.00
2018-04-16T01:46:58.301Z,95.30
2018-04-16T01:50:07.204Z,94.70
2018-04-16T01:53:16.014Z,95.60
2018-04-16T01:56:24.910Z,95.60
2018-04-16T01:59:34.597Z,95.60
2018-04-16T02:02:43.551Z,95.50
2018-04-16T02:05:52.526Z,96.00
2018-04-16T02:09:01.459Z,95.80
2018-04-16T02:12:11.188Z,95.60
2018-04-16T02:15:20.902Z,95.90
2018-04-16T02:18:29.814Z,95.80
2018-04-16T02:21:38.865Z,95.80
2018-04-16T02:24:47.720Z,96.30
2018-04-16T02:31:34.888Z,96.70
2018-04-16T02:34:44.607Z,96.70
2018-04-16T02:37:53.546Z,96.70
2018-04-16T02:41:03.064Z,96.60
2018-04-16T02:44:11.949Z,96.50
2018-04-16T02:47:20.755Z,96.80
2018-04-16T02:50:30.400Z,96.90
2018-04-16T02:53:41.681Z,96.80
2018-04-16T02:56:50.563Z,96.90
2018-04-16T02:59:59.397Z,96.80
2018-04-16T03:03:08.458Z,97.00
2018-04-16T03:06:17.415Z,97.00
2018-04-16T03:09:26.261Z,97.00
2018-04-16T03:12:35.252Z,97.00
2018-04-16T03:15:44.458Z,97.00
2018-04-16T03:18:58.985Z,97.00
2018-04-16T03:22:07.848Z,97.30
2018-04-16T03:25:16.780Z,97.30
2018-04-16T03:28:25.672Z,97.50
2018-04-16T03:31:34.444Z,97.50
2018-04-16T03:34:44.091Z,97.50
2018-04-16T03:37:53.840Z,97.60
2018-04-16T03:41:03.584Z,98.10
2018-04-16T03:44:13.202Z,97.70
2018-04-16T03:47:21.986Z,97.70
2018-04-16T03:50:30.938Z,97.80
2018-04-16T03:53:39.786Z,97.90
2018-04-16T03:56:43.202Z,97.90
2018-04-16T03:59:46.989Z,97.90
2018-04-16T04:02:50.183Z,97.90
2018-04-16T04:05:53.403Z,98.00
2018-04-16T04:08:57.380Z,97.90
2018-04-16T04:12:00.595Z,97.80
2018-04-16T04:15:03.870Z,98.20
2018-04-16T04:18:07.470Z,98.20
2018-04-16T04:21:10.642Z,98.20
2018-04-16T04:24:26.497Z,98.20
2018-04-16T04:31:04.982Z,98.50
2018-04-16T04:34:08.152Z,98.40
2018-04-16T04:37:11.362Z,98.70
2018-04-16T04:40:16.177Z,99.00
2018-04-16T04:43:21.588Z,98.90
2018-04-16T04:46:24.731Z,98.90
2018-04-16T04:49:27.945Z,99.10
2018-04-16T04:52:31.146Z,99.20
2018-04-16T04:55:34.357Z,99.50
2018-04-16T04:58:37.539Z,99.90
2018-04-16T05:01:40.816Z,99.90
2018-04-16T05:04:44.045Z,99.90
2018-04-16T05:07:47.268Z,99.90
2018-04-16T05:10:51.240Z,99.90
2018-04-16T05:13:55.210Z,99.90
2018-04-16T05:16:58.459Z,99.90
2018-04-16T05:20:01.649Z,99.90
2018-04-16T05:23:05.653Z,99.90
2018-04-16T05:26:08.854Z,99.90
2018-04-16T05:29:12.080Z,99.80
2018-04-16T05:32:15.319Z,99.90
2018-04-16T05:35:18.529Z,99.80
2018-04-16T05:38:21.770Z,99.90
2018-04-16T05:41:25.082Z,99.90
2018-04-16T05:44:28.797Z,99.90
2018-04-16T05:47:31.992Z,99.90
2018-04-16T05:50:35.938Z,99.90
2018-04-16T05:53:39.131Z,99.90
2018-04-16T05:56:42.384Z,99.80
2018-04-16T05:59:45.618Z,99.80
2018-04-16T06:02:48.782Z,99.90
2018-04-16T06:05:52.022Z,99.80
2018-04-16T06:08:55.219Z,99.80
2018-04-16T06:11:58.461Z,99.40
2018-04-16T06:15:01.633Z,99.30
2018-04-16T06:18:05.684Z,99.60
2018-04-16T06:21:08.877Z,99.40
2018-04-16T06:24:12.076Z,99.50
2018-04-16T06:27:15.249Z,99.60
2018-04-16T06:30:18.447Z,99.80
2018-04-16T06:33:21.619Z,99.60
2018-04-16T06:36:26.532Z,99.60
2018-04-16T06:39:29.711Z,99.60
2018-04-16T06:42:32.903Z,99.70
2018-04-16T06:45:36.063Z,99.80
2018-04-16T06:48:39.285Z,99.80
2018-04-16T06:51:42.611Z,99.90
2018-04-16T06:54:45.914Z,99.90
2018-04-16T06:57:49.880Z,99.90
2018-04-16T07:00:53.136Z,99.90
2018-04-16T07:03:56.355Z,99.80
2018-04-16T07:06:59.623Z,99.50
2018-04-16T07:10:03.050Z,99.40
2018-04-16T07:13:06.228Z,99.10
2018-04-16T07:16:09.444Z,99.00
2018-04-16T07:19:12.699Z,99.10
2018-04-16T07:22:15.910Z,99.10
2018-04-16T07:25:19.860Z,99.10
2018-04-16T07:28:23.792Z,99.10
2018-04-16T07:31:27.016Z,98.90
2018-04-16T07:34:30.201Z,99.00
2018-04-16T07:37:34.174Z,99.10
2018-04-16T07:40:37.406Z,99.30
2018-04-16T07:43:40.638Z,99.40
2018-04-16T07:46:44.587Z,99.20
2018-04-16T07:49:49.428Z,99.20
2018-04-16T07:52:52.579Z,99.10
2018-04-16T07:55:57.337Z,98.50
2018-04-16T07:59:00.495Z,98.40
2018-04-16T08:02:03.700Z,98.70
2018-04-16T08:05:06.857Z,98.70
2018-04-16T08:08:10.564Z,98.70
2018-04-16T08:11:13.722Z,98.70
2018-04-16T08:14:16.912Z,98.40
2018-04-16T08:17:20.049Z,97.80
2018-04-16T08:20:24.003Z,97.10
2018-04-16T08:23:27.168Z,97.10
2018-04-16T08:26:31.123Z,97.00
2018-04-16T08:29:34.259Z,96.90
2018-04-16T08:32:37.445Z,97.30
2018-04-16T08:35:40.602Z,97.40
2018-04-16T08:38:43.884Z,97.00
2018-04-16T08:41:47.034Z,96.20
2018-04-16T08:44:50.220Z,96.50
2018-04-16T08:47:54.200Z,96.30
2018-04-16T08:50:57.373Z,96.20
2018-04-16T08:54:00.540Z,94.90
2018-04-16T08:57:04.514Z,95.20
2018-04-16T09:00:08.493Z,94.60
2018-04-16T09:03:11.676Z,94.60
2018-04-16T09:06:14.918Z,93.30
2018-04-16T09:09:18.119Z,91.90
2018-04-16T09:12:21.302Z,91.20
2018-04-16T09:15:24.512Z,91.80
2018-04-16T09:18:28.498Z,91.30
2018-04-16T09:21:31.670Z,91.20
2018-04-16T09:24:35.686Z,88.60
2018-04-16T09:27:38.951Z,88.40
2018-04-16T09:30:42.641Z,84.00
2018-04-16T09:33:45.966Z,80.30
2018-04-16T09:36:49.938Z,83.90
2018-04-16T09:39:53.188Z,83.70
2018-04-16T09:42:56.462Z,83.80
2018-04-16T09:45:59.693Z,80.80
2018-04-16T09:49:02.892Z,81.60
2018-04-16T09:52:06.103Z,81.60
2018-04-16T09:55:10.119Z,79.20
2018-04-16T09:58:13.343Z,79.90
2018-04-16T10:01:21.219Z,80.90
2018-04-16T10:04:25.008Z,80.80
2018-04-16T10:07:28.226Z,79.50
2018-04-16T10:10:31.424Z,79.40
2018-04-16T10:13:34.599Z,80.30
2018-04-16T10:16:37.852Z,73.70
2018-04-16T10:19:41.070Z,75.10
2018-04-16T10:22:46.451Z,75.80
2018-04-16T10:25:49.601Z,75.70
2018-04-16T10:28:52.789Z,76.40
2018-04-16T10:31:56.050Z,75.80
2018-04-16T10:34:59.269Z,75.80
2018-04-16T10:38:02.483Z,73.60
2018-04-16T10:41:05.739Z,75.50
2018-04-16T10:44:09.721Z,72.30
2018-04-16T10:47:12.907Z,72.10
2018-04-16T10:50:16.130Z,77.30
2018-04-16T10:53:19.791Z,76.10
2018-04-16T10:56:22.974Z,75.40
2018-04-16T10:59:26.168Z,73.70
2018-04-16T11:02:29.371Z,76.00
2018-04-16T11:05:32.601Z,74.50
2018-04-16T11:08:35.804Z,74.30
2018-04-16T11:11:38.993Z,71.10
2018-04-16T11:14:42.252Z,66.90
2018-04-16T11:17:45.541Z,65.30
2018-04-16T11:20:48.701Z,65.40
2018-04-16T11:23:51.875Z,69.90
2018-04-16T11:26:56.027Z,69.80
2018-04-16T11:29:59.974Z,64.50
2018-04-16T11:33:03.136Z,64.40
2018-04-16T11:36:06.310Z,64.90
2018-04-16T11:39:09.486Z,63.20
2018-04-16T11:42:12.760Z,62.80
2018-04-16T11:45:15.924Z,63.10
2018-04-16T11:48:19.863Z,62.60
2018-04-16T11:51:23.036Z,62.60
2018-04-16T11:54:26.227Z,62.20
2018-04-16T11:57:30.674Z,63.40
2018-04-16T12:00:33.835Z,63.30
2018-04-16T12:03:37.001Z,63.70
2018-04-16T12:06:40.161Z,64.40
2018-04-16T12:09:43.550Z,62.20
2018-04-16T12:12:46.755Z,60.20
2018-04-16T12:15:49.950Z,61.00
2018-04-16T12:18:53.136Z,59.00
2018-04-16T12:22:03.042Z,61.20
2018-04-16T12:25:06.987Z,59.50
2018-04-16T12:28:10.156Z,59.50
2018-04-16T12:31:19.429Z,59.50
2018-04-16T12:34:28.504Z,59.10
2018-04-16T12:37:31.677Z,59.80
2018-04-16T12:40:34.867Z,59.00
2018-04-16T12:43:38.047Z,58.60
2018-04-16T12:46:41.201Z,59.90
2018-04-16T12:49:44.496Z,59.10
2018-04-16T12:52:53.814Z,58.80
2018-04-16T12:55:56.976Z,58.00
2018-04-16T12:59:00.138Z,56.90
2018-04-16T13:02:03.301Z,59.40
2018-04-16T13:05:13.049Z,55.50
2018-04-16T13:08:27.836Z,55.40
2018-04-16T13:11:31.027Z,55.50
2018-04-16T13:14:34.573Z,57.00
2018-04-16T13:17:39.284Z,57.30
2018-04-16T13:20:43.459Z,57.20
2018-04-16T13:23:47.431Z,53.60
2018-04-16T13:26:56.426Z,53.40
2018-04-16T13:30:05.304Z,54.10
2018-04-16T13:33:08.534Z,55.30
2018-04-16T13:36:23.416Z,53.10
2018-04-16T13:39:32.215Z,52.90
2018-04-16T13:42:35.424Z,54.90
2018-04-16T13:45:38.660Z,51.00
2018-04-16T13:48:41.837Z,48.20
2018-04-16T13:51:45.170Z,48.20
2018-04-16T13:54:48.406Z,52.50
2018-04-16T13:57:57.604Z,50.20
2018-04-16T14:01:00.799Z,50.30
2018-04-16T14:04:10.756Z,52.30
2018-04-16T14:07:26.224Z,52.30
2018-04-16T14:10:29.418Z,50.20
2018-04-16T14:13:32.644Z,50.20
2018-04-16T14:16:36.617Z,51.40
2018-04-16T14:19:39.827Z,51.20
2018-04-16T14:22:43.282Z,51.30
2018-04-16T14:25:52.251Z,52.00
2018-04-16T14:28:56.251Z,49.50
2018-04-16T14:31:59.454Z,49.30
2018-04-16T14:35:02.634Z,51.60
2018-04-16T14:38:06.718Z,52.80
2018-04-16T14:41:15.838Z,53.40
2018-04-16T14:44:26.832Z,53.90
2018-04-16T14:47:35.770Z,53.80
2018-04-16T14:50:39.052Z,53.60
2018-04-16T14:53:42.329Z,52.80
2018-04-16T14:56:45.715Z,52.80
2018-04-16T14:59:48.888Z,53.60
2018-04-16T15:02:58.130Z,53.20
2018-04-16T15:06:07.276Z,53.80
2018-04-16T15:09:16.229Z,53.30
2018-04-16T15:12:25.206Z,54.20
2018-04-16T15:15:28.407Z,56.00
2018-04-16T15:18:32.066Z,58.30
2018-04-16T15:21:35.984Z,74.60
2018-04-16T15:24:40.095Z,74.50
2018-04-16T15:27:43.349Z,81.60
2018-04-16T15:30:46.561Z,79.00
2018-04-16T15:33:50.501Z,82.60
2018-04-16T15:36:53.690Z,82.60
2018-04-16T15:39:56.868Z,81.50
2018-04-16T15:43:00.063Z,84.20
2018-04-16T15:46:03.234Z,84.00
2018-04-16T15:49:06.912Z,82.10
2018-04-16T15:52:10.223Z,81.90
2018-04-16T15:55:14.244Z,79.30
2018-04-16T15:58:17.440Z,78.90
2018-04-16T16:01:20.627Z,76.10
2018-04-16T16:04:23.921Z,77.70
2018-04-16T16:07:27.083Z,76.50
2018-04-16T16:10:30.265Z,75.10
2018-04-16T16:13:34.222Z,76.20
2018-04-16T16:16:37.679Z,75.90
2018-04-16T16:19:41.789Z,76.40
2018-04-16T16:22:44.984Z,73.60
2018-04-16T16:25:48.186Z,71.40
2018-04-16T16:28:51.374Z,72.60
2018-04-16T16:31:55.360Z,71.70
2018-04-16T16:34:58.573Z,71.60
2018-04-16T16:38:02.517Z,68.20
2018-04-16T16:41:05.759Z,68.10
2018-04-16T16:44:09.736Z,69.40
2018-04-16T16:47:12.937Z,69.40
2018-04-16T16:50:16.667Z,70.50
2018-04-16T16:53:20.684Z,69.50
2018-04-16T16:56:23.966Z,69.10
2018-04-16T16:59:27.186Z,69.20
2018-04-16T17:02:30.477Z,67.80
2018-04-16T17:05:33.756Z,67.30
2018-04-16T17:08:37.011Z,67.30
2018-04-16T17:11:40.235Z,68.10
2018-04-16T17:14:45.156Z,68.20
2018-04-16T17:17:48.357Z,68.70
2018-04-16T17:20:52.267Z,66.90
2018-04-16T17:23:55.421Z,67.70
2018-04-16T17:26:59.631Z,68.90
2018-04-16T17:30:02.809Z,68.90
2018-04-16T17:33:06.741Z,69.00
2018-04-16T17:36:09.937Z,68.90
2018-04-16T17:39:13.160Z,68.90
2018-04-16T17:42:16.367Z,70.40
2018-04-16T17:45:19.521Z,69.50
2018-04-16T17:48:22.794Z,69.80
2018-04-16T17:51:26.363Z,71.00
2018-04-16T17:54:29.620Z,71.10
2018-04-16T17:57:32.791Z,69.10
2018-04-16T18:00:36.012Z,69.80
2018-04-16T18:03:39.210Z,70.90
2018-04-16T18:06:42.425Z,74.70
2018-04-16T18:09:46.667Z,73.80
2018-04-16T18:12:49.778Z,73.70
2018-04-16T18:15:53.803Z,73.90
2018-04-16T18:18:57.725Z,72.20
2018-04-16T18:22:01.600Z,72.20
2018-04-16T18:25:04.870Z,73.20
2018-04-16T18:28:08.016Z,74.20
2018-04-16T18:31:12.022Z,76.60
2018-04-16T18:34:15.236Z,76.50
2018-04-16T18:37:18.412Z,77.20
2018-04-16T18:40:22.357Z,77.50
2018-04-16T18:43:26.330Z,77.90
2018-04-16T18:46:29.483Z,77.80
2018-04-16T18:49:32.813Z,78.20
2018-04-16T18:52:35.956Z,78.50
2018-04-16T18:55:39.124Z,79.00
2018-04-16T18:58:43.292Z,80.10
2018-04-16T19:01:46.475Z,80.00
2018-04-16T19:04:49.641Z,79.70
2018-04-16T19:07:53.627Z,82.20
2018-04-16T19:10:57.599Z,83.10
2018-04-16T19:14:00.799Z,83.00
2018-04-16T19:17:04.017Z,83.30
2018-04-16T19:20:08.231Z,85.40
2018-04-16T19:23:11.396Z,85.30
2018-04-16T19:26:14.590Z,85.70
2018-04-16T19:29:17.987Z,86.40
2018-04-16T19:32:21.177Z,86.50
2018-04-16T19:35:24.369Z,87.80
2018-04-16T19:38:27.572Z,88.10
2018-04-16T19:41:36.422Z,90.10
2018-04-16T19:44:39.614Z,90.60
2018-04-16T19:47:43.964Z,90.60
2018-04-16T19:50:47.169Z,91.10
2018-04-16T19:53:51.100Z,91.90
2018-04-16T19:57:00.034Z,91.80
2018-04-16T20:00:03.198Z,91.70
2018-04-16T20:03:12.192Z,92.10
2018-04-16T20:06:15.667Z,92.20
2018-04-16T20:09:18.806Z,92.50
2018-04-16T20:12:21.971Z,92.40
2018-04-16T20:15:25.129Z,92.50
2018-04-16T20:18:28.327Z,92.50
2018-04-16T20:21:31.491Z,93.10
2018-04-16T20:24:34.687Z,92.80
2018-04-16T20:27:38.617Z,93.00
2018-04-16T20:30:41.865Z,92.90
2018-04-16T20:33:45.220Z,93.30
2018-04-16T20:36:48.490Z,92.90
2018-04-16T20:39:51.809Z,93.30
2018-04-16T20:42:55.118Z,93.10
2018-04-16T20:45:58.313Z,93.10
2018-04-16T20:49:01.487Z,93.40
2018-04-16T20:52:04.839Z,93.80
2018-04-16T20:55:08.012Z,94.00
2018-04-16T20:58:11.206Z,94.00
2018-04-16T21:01:14.447Z,94.40
2018-04-16T21:04:17.782Z,94.20
2018-04-16T21:07:21.009Z,94.10
2018-04-16T21:10:24.300Z,94.40
2018-04-16T21:13:28.472Z,94.50
2018-04-16T21:16:31.761Z,94.70
2018-04-16T21:19:35.149Z,94.70
2018-04-16T21:22:38.404Z,94.80
2018-04-16T21:25:41.652Z,94.90
2018-04-16T21:28:45.139Z,94.70
2018-04-16T21:31:49.072Z,94.60
2018-04-16T21:34:53.761Z,94.30
2018-04-16T21:37:56.938Z,94.10
2018-04-16T21:41:00.190Z,94.40
2018-04-16T21:44:03.313Z,94.50
2018-04-16T21:47:06.505Z,94.40
2018-04-16T21:50:09.663Z,94.90
2018-04-16T21:53:12.841Z,95.10
2018-04-16T21:56:16.772Z,95.50
2018-04-16T21:59:19.988Z,95.50
2018-04-16T22:02:23.163Z,95.80
2018-04-16T22:05:26.357Z,95.60
2018-04-16T22:08:29.552Z,95.60
2018-04-16T22:11:32.751Z,95.80
2018-04-16T22:14:35.989Z,95.90
2018-04-16T22:17:39.160Z,96.10
2018-04-16T22:20:43.421Z,95.90
2018-04-16T22:23:46.628Z,96.10
2018-04-16T22:26:49.784Z,96.00
2018-04-16T22:29:52.972Z,96.40
2018-04-16T22:32:56.125Z,96.20
2018-04-16T22:35:59.320Z,96.60
2018-04-16T22:39:02.504Z,97.00
2018-04-16T22:42:06.433Z,97.00
2018-04-16T22:45:15.860Z,96.70
2018-04-16T22:48:20.420Z,96.90
2018-04-16T22:51:23.654Z,97.30
2018-04-16T22:54:27.757Z,97.20
2018-04-16T22:57:32.075Z,97.20
2018-04-16T23:00:37.394Z,96.80
2018-04-16T23:03:41.894Z,96.60
2018-04-16T23:06:45.374Z,97.00
2018-04-16T23:13:47.150Z,97.60
2018-04-16T23:25:37.174Z,97.10
2018-04-16T23:28:49.708Z,97.00
2018-04-16T23:31:53.025Z,97.40
2018-04-16T23:34:56.270Z,97.20
2018-04-16T23:37:59.578Z,97.30
2018-04-16T23:41:10.898Z,97.50
2018-04-16T23:44:14.350Z,97.20
2018-04-16T23:47:17.614Z,97.20
2018-04-16T23:50:35.054Z,97.20
2018-04-16T23:53:41.112Z,97.30
2018-04-16T23:56:45.431Z,97.10
2018-04-16T23:59:48.763Z,97.40
